Bayview, Wisconsin
Current Conditions -  °F | °C
As of 3:52 PM on Saturday 20 Dec 2014 (Local Time) from KMKE Reporting Station
Overcast Overcast  
Wind Chill: 26°   Ceiling: 3600
Heat Index: 31°   Visibility: 10mi
Dew Point: 22°   Wind: 5mph
Humidity: 69%   Direction: 240°WSW
Pressure: 30.24"   Gusts: NA
Location:  42.9708°N, 87.8754°W
Report Text: KMKE 202152Z 24004KT 10SM BKN036 BKN049 OVC070 M01/M06 A3024 RMK AO2 SNE37 SLP251 P0000 T10061056
Loading
Personal Weather Stations






























Interactive Weather Map New forecast layout! Learn more

10-Day Weather Forecast

Advertisements
Track Severe Weather on mobile